Time;durP1;ratioP1;P1;durP2;ratioP2;P2;SDS_P1;SDS_P2;PMS_P1;PMS_P2;Temp;Humidity;BMP_temperature;BMP_pressure;BME280_temperature;BME280_humidity;BME280_pressure;Samples;Min_cycle;Max_cycle;Signal;HPM_P1;HPM_P2
2022/10/26 00:01:20;;;;;;;11.03;6.70;;;14.40;97.50;;;;;;5026141;28;20462;-64
2022/10/26 00:03:46;;;;;;;18.43;7.00;;;14.40;97.60;;;;;;5023919;28;20471;-64
2022/10/26 00:06:16;;;;;;;12.47;8.17;;;14.40;97.60;;;;;;5023356;28;20455;-64
2022/10/26 00:08:43;;;;;;;11.07;6.60;;;14.40;97.60;;;;;;5023845;28;20458;-64
2022/10/26 00:11:12;;;;;;;11.23;6.20;;;14.50;97.60;;;;;;5024052;28;20460;-64
2022/10/26 00:13:40;;;;;;;9.33;6.50;;;14.50;97.60;;;;;;5025334;28;20494;-65
2022/10/26 00:16:11;;;;;;;17.27;7.47;;;14.50;97.70;;;;;;5025022;28;20462;-65
2022/10/26 00:18:38;;;;;;;12.67;6.33;;;14.50;97.70;;;;;;5005356;28;20436;-63
2022/10/26 00:21:05;;;;;;;10.60;6.90;;;14.50;97.70;;;;;;5023871;28;20819;-63
2022/10/26 00:23:32;;;;;;;14.87;7.20;;;14.60;97.70;;;;;;5024170;28;20468;-64
2022/10/26 00:25:59;;;;;;;10.50;6.40;;;14.60;97.70;;;;;;5024571;28;20463;-64
2022/10/26 00:28:27;;;;;;;9.93;5.67;;;14.60;97.70;;;;;;5024770;28;20455;-64
2022/10/26 00:30:54;;;;;;;10.40;5.03;;;14.60;97.70;;;;;;5023909;28;20459;-64
2022/10/26 00:33:21;;;;;;;8.20;4.87;;;14.60;97.60;;;;;;5023704;28;20523;-64
2022/10/26 00:35:52;;;;;;;9.40;4.70;;;14.60;97.90;;;;;;5024290;28;20443;-65
2022/10/26 00:38:19;;;;;;;10.90;6.10;;;14.60;97.60;;;;;;5024639;28;20463;-65
2022/10/26 00:40:46;;;;;;;9.87;4.50;;;14.60;97.60;;;;;;5024171;28;20438;-64
2022/10/26 00:43:33;;;;;;;8.27;4.37;;;14.70;97.60;;;;;;5025507;28;20463;-64
2022/10/26 00:46:03;;;;;;;9.03;4.17;;;14.70;97.70;;;;;;5024462;28;20439;-64
2022/10/26 00:48:33;;;;;;;7.63;5.13;;;14.70;97.60;;;;;;5025654;28;20885;-65
2022/10/26 00:51:05;;;;;;;13.30;4.63;;;14.70;97.60;;;;;;5007002;28;20439;-64
2022/10/26 00:53:33;;;;;;;11.73;5.00;;;14.60;97.60;;;;;;5026039;28;20497;-65
2022/10/26 00:56:01;;;;;;;5.40;4.23;;;14.70;97.60;;;;;;5024536;28;20456;-65
2022/10/26 00:58:29;;;;;;;5.77;4.17;;;14.70;97.70;;;;;;5025721;28;20452;-64
2022/10/26 01:00:56;;;;;;;10.37;4.80;;;14.70;97.60;;;;;;5025589;28;20904;-64
2022/10/26 01:03:24;;;;;;;9.47;5.10;;;14.70;97.60;;;;;;5025087;28;20478;-64
2022/10/26 01:05:56;;;;;;;12.13;4.20;;;14.70;97.60;;;;;;5024845;28;20451;-65
2022/10/26 01:08:23;;;;;;;9.57;4.60;;;14.70;97.70;;;;;;5027489;28;20442;-65
2022/10/26 01:10:51;;;;;;;7.83;4.30;;;14.70;97.70;;;;;;5026598;28;20442;-64
2022/10/26 01:13:18;;;;;;;10.30;4.10;;;14.70;97.80;;;;;;5026419;28;20500;-65
2022/10/26 01:15:52;;;;;;;6.60;3.80;;;14.70;97.80;;;;;;5024998;28;20477;-65
2022/10/26 01:18:27;;;;;;;19.40;4.20;;;14.70;97.80;;;;;;5025230;28;20439;-65
2022/10/26 01:21:14;;;;;;;10.67;4.10;;;14.70;97.80;;;;;;5023986;28;20427;-65
2022/10/26 01:23:58;;;;;;;5.87;3.30;;;14.70;97.90;;;;;;5023913;28;21012;-65
2022/10/26 01:26:53;;;;;;;6.40;3.67;;;14.70;97.90;;;;;;5026020;28;20833;-64
2022/10/26 01:29:38;;;;;;;4.30;3.13;;;14.70;97.90;;;;;;5024035;28;20444;-64
2022/10/26 01:32:11;;;;;;;7.43;3.40;;;14.70;97.90;;;;;;5025244;28;20474;-64
2022/10/26 01:34:46;;;;;;;5.50;3.07;;;14.70;97.90;;;;;;5025785;28;20550;-65
2022/10/26 01:37:19;;;;;;;8.70;3.20;;;14.70;97.90;;;;;;5025584;28;20459;-65
2022/10/26 01:39:50;;;;;;;6.23;2.97;;;14.70;97.90;;;;;;5025704;28;20444;-65
2022/10/26 01:42:19;;;;;;;7.50;3.00;;;14.70;98.00;;;;;;5023369;28;20482;-64
2022/10/26 01:44:49;;;;;;;6.27;3.00;;;14.70;97.90;;;;;;5024872;28;20435;-64
2022/10/26 01:47:20;;;;;;;6.23;3.40;;;14.70;97.90;;;;;;5026899;28;20446;-64
2022/10/26 01:49:50;;;;;;;7.57;3.27;;;14.80;97.90;;;;;;5029487;28;20882;-64
2022/10/26 01:52:18;;;;;;;5.90;3.10;;;14.80;97.90;;;;;;5028980;28;20467;-66
2022/10/26 01:54:45;;;;;;;4.13;3.33;;;14.80;97.90;;;;;;5025414;28;20523;-66
2022/10/26 01:57:14;;;;;;;7.00;3.27;;;14.80;97.90;;;;;;5025305;28;20454;-65
2022/10/26 02:00:00;;;;;;;9.07;3.23;;;14.80;97.90;;;;;;5026007;28;20442;-66
2022/10/26 02:02:54;;;;;;;7.63;2.70;;;14.80;97.90;;;;;;5026093;28;20467;-64
2022/10/26 02:05:48;;;;;;;8.67;3.47;;;14.80;97.90;;;;;;5024911;28;20442;-66
2022/10/26 02:08:26;;;;;;;9.60;3.40;;;14.80;97.90;;;;;;5023686;28;20851;-66
2022/10/26 02:11:04;;;;;;;6.20;3.23;;;14.80;97.80;;;;;;5024809;28;20443;-66
2022/10/26 02:13:42;;;;;;;5.50;2.27;;;14.90;97.80;;;;;;5025975;28;20479;-65
2022/10/26 02:16:18;;;;;;;8.40;3.87;;;14.90;97.80;;;;;;5026401;28;20497;-65
2022/10/26 02:18:51;;;;;;;6.50;3.40;;;14.90;97.80;;;;;;5025836;28;20432;-65
2022/10/26 02:21:22;;;;;;;7.13;3.20;;;14.90;97.80;;;;;;5026356;28;20440;-65
2022/10/26 02:23:51;;;;;;;4.63;3.70;;;14.90;97.80;;;;;;5027612;28;20477;-65
2022/10/26 02:26:22;;;;;;;9.20;3.20;;;14.80;97.70;;;;;;5026822;28;20451;-66
2022/10/26 02:28:54;;;;;;;7.40;2.60;;;14.90;97.80;;;;;;5026926;28;20776;-66
2022/10/26 02:31:21;;;;;;;4.87;2.67;;;14.80;97.80;;;;;;5026421;28;20818;-66
2022/10/26 02:33:53;;;;;;;4.67;2.30;;;14.90;97.80;;;;;;5025701;28;20491;-64
2022/10/26 02:36:25;;;;;;;4.10;2.67;;;14.90;97.80;;;;;;5025377;28;20435;-64
2022/10/26 02:38:53;;;;;;;4.67;2.67;;;14.90;97.90;;;;;;5028056;28;20444;-64
2022/10/26 02:41:23;;;;;;;7.07;3.03;;;14.90;97.90;;;;;;5027116;28;20463;-64
2022/10/26 02:43:53;;;;;;;7.10;2.50;;;14.90;97.80;;;;;;5029048;28;20467;-65
2022/10/26 02:46:23;;;;;;;5.70;3.17;;;14.90;97.80;;;;;;5032085;28;20458;-65
2022/10/26 02:48:51;;;;;;;4.87;2.67;;;14.90;97.70;;;;;;5029936;28;20513;-64
2022/10/26 02:51:22;;;;;;;6.60;2.50;;;14.80;97.60;;;;;;5027995;28;20442;-65
2022/10/26 02:53:53;;;;;;;5.70;2.80;;;14.80;97.70;;;;;;5027712;28;20494;-65
2022/10/26 02:56:25;;;;;;;7.40;4.10;;;14.80;97.80;;;;;;5028607;28;20457;-65
2022/10/26 02:58:56;;;;;;;10.37;2.80;;;14.80;98.00;;;;;;5031129;28;20436;-65
2022/10/26 03:01:23;;;;;;;5.43;2.57;;;14.80;98.00;;;;;;5030347;28;20862;-65
2022/10/26 03:03:51;;;;;;;3.40;2.40;;;14.80;98.00;;;;;;5029905;28;20473;-65
2022/10/26 03:06:22;;;;;;;6.27;2.93;;;14.70;97.90;;;;;;5031596;28;20447;-66
2022/10/26 03:08:50;;;;;;;4.17;2.23;;;14.70;97.80;;;;;;5029613;28;20926;-65
2022/10/26 03:11:17;;;;;;;8.90;2.70;;;14.80;97.90;;;;;;5029289;28;20452;-64
2022/10/26 03:13:44;;;;;;;5.63;2.33;;;14.80;97.90;;;;;;5029571;28;20551;-64
2022/10/26 03:16:11;;;;;;;4.10;2.23;;;14.70;98.00;;;;;;5028309;28;20431;-64
2022/10/26 03:18:38;;;;;;;4.30;2.50;;;14.80;98.10;;;;;;5029153;28;20453;-64
2022/10/26 03:21:06;;;;;;;4.40;2.13;;;14.80;98.20;;;;;;5028944;28;20458;-63
2022/10/26 03:23:33;;;;;;;4.60;2.13;;;14.80;98.10;;;;;;5028986;28;20477;-64
2022/10/26 03:25:59;;;;;;;4.63;2.43;;;14.80;98.10;;;;;;5027451;28;20865;-65
2022/10/26 03:28:26;;;;;;;6.77;2.40;;;14.80;98.00;;;;;;5025531;28;20448;-65
2022/10/26 03:30:53;;;;;;;2.93;2.10;;;14.90;98.00;;;;;;5026876;28;20451;-64
2022/10/26 03:33:20;;;;;;;12.53;3.07;;;14.90;97.90;;;;;;5028485;28;20475;-65
2022/10/26 03:35:54;;;;;;;6.90;2.47;;;14.90;97.90;;;;;;5027216;28;20574;-65
2022/10/26 03:38:22;;;;;;;6.93;2.40;;;14.90;98.00;;;;;;5024883;28;20814;-65
2022/10/26 03:40:49;;;;;;;5.53;2.30;;;14.90;98.00;;;;;;5025659;28;20465;-65
2022/10/26 03:43:16;;;;;;;10.67;2.07;;;14.90;98.00;;;;;;5025739;28;20474;-64
2022/10/26 03:45:42;;;;;;;8.63;3.03;;;14.90;98.00;;;;;;5026538;28;21012;-64
2022/10/26 03:48:09;;;;;;;12.70;2.50;;;14.90;98.00;;;;;;5026884;28;20451;-64
2022/10/26 03:50:36;;;;;;;4.70;1.93;;;15.00;98.00;;;;;;5027056;28;20447;-64
2022/10/26 03:53:02;;;;;;;11.80;2.57;;;15.00;98.10;;;;;;5026603;28;21025;-66
2022/10/26 03:55:31;;;;;;;3.10;2.23;;;15.00;98.00;;;;;;5026200;28;20476;-66
2022/10/26 03:57:57;;;;;;;5.10;2.13;;;15.00;98.00;;;;;;5027452;28;20443;-66
2022/10/26 04:00:24;;;;;;;3.07;2.30;;;15.00;98.10;;;;;;5025976;28;20968;-64
2022/10/26 04:02:55;;;;;;;6.17;2.80;;;15.00;98.00;;;;;;5027322;28;20823;-65
2022/10/26 04:05:22;;;;;;;4.13;3.10;;;15.00;98.10;;;;;;5028795;28;20439;-65
2022/10/26 04:07:52;;;;;;;5.47;2.20;;;15.00;98.10;;;;;;5028250;28;20455;-65
2022/10/26 04:10:19;;;;;;;6.90;2.57;;;15.00;98.20;;;;;;5027140;28;20444;-65
2022/10/26 04:12:47;;;;;;;4.47;2.23;;;14.90;98.10;;;;;;5027786;28;20471;-64
2022/10/26 04:15:14;;;;;;;4.77;1.90;;;15.00;98.10;;;;;;5028029;28;20480;-64
2022/10/26 04:17:41;;;;;;;4.30;2.13;;;15.00;98.00;;;;;;5027525;28;20447;-66
2022/10/26 04:20:09;;;;;;;10.53;2.77;;;15.00;98.10;;;;;;5026991;28;20451;-64
2022/10/26 04:22:36;;;;;;;7.83;2.67;;;15.00;98.40;;;;;;5025872;28;20471;-64
2022/10/26 04:25:03;;;;;;;4.57;2.03;;;15.00;98.10;;;;;;5024367;28;20439;-66
2022/10/26 04:27:30;;;;;;;4.80;1.97;;;15.00;98.10;;;;;;5025949;28;20458;-66
2022/10/26 04:29:58;;;;;;;4.17;2.40;;;15.00;98.10;;;;;;5028329;28;20452;-64
2022/10/26 04:32:25;;;;;;;3.70;2.80;;;15.00;98.20;;;;;;5026452;28;20471;-66
2022/10/26 04:34:53;;;;;;;5.30;2.60;;;15.00;98.20;;;;;;5027020;28;20479;-66
2022/10/26 04:37:20;;;;;;;4.00;2.73;;;15.00;98.20;;;;;;5026214;28;20502;-66
2022/10/26 04:39:46;;;;;;;4.87;2.43;;;15.00;98.30;;;;;;5026605;28;20949;-66
2022/10/26 04:42:13;;;;;;;3.20;2.40;;;15.00;98.30;;;;;;5027864;28;20475;-65
2022/10/26 04:44:40;;;;;;;6.37;3.00;;;15.00;98.40;;;;;;5029318;28;20434;-64
2022/10/26 04:47:08;;;;;;;5.03;2.40;;;15.00;98.40;;;;;;5029532;28;20451;-66
2022/10/26 04:49:35;;;;;;;12.73;2.63;;;15.10;98.60;;;;;;5026938;28;20463;-65
2022/10/26 04:52:01;;;;;;;3.80;2.63;;;15.10;98.60;;;;;;5026692;28;20472;-64
2022/10/26 04:54:28;;;;;;;2.77;2.27;;;15.10;98.80;;;;;;5027732;28;20494;-66
2022/10/26 04:56:55;;;;;;;12.47;3.10;;;15.10;98.80;;;;;;5029853;28;20455;-66
2022/10/26 04:59:22;;;;;;;4.07;2.97;;;15.10;98.80;;;;;;5027830;28;20431;-65
2022/10/26 05:01:48;;;;;;;8.63;3.10;;;15.10;98.80;;;;;;5028028;28;20445;-64
2022/10/26 05:04:16;;;;;;;4.20;2.57;;;15.10;98.80;;;;;;5028080;28;20450;-66
2022/10/26 05:06:43;;;;;;;7.00;3.23;;;15.10;98.90;;;;;;5026976;28;20435;-66
2022/10/26 05:09:10;;;;;;;5.87;3.50;;;15.10;98.80;;;;;;5026108;28;20827;-65
2022/10/26 05:11:37;;;;;;;4.50;3.30;;;15.10;98.80;;;;;;5025103;28;20946;-65
2022/10/26 05:14:04;;;;;;;4.40;3.00;;;15.10;98.90;;;;;;5026152;28;20460;-66
2022/10/26 05:16:30;;;;;;;9.20;2.80;;;15.10;99.00;;;;;;5026106;28;20502;-66
2022/10/26 05:18:57;;;;;;;12.13;2.80;;;15.10;99.00;;;;;;5027109;28;20446;-66
2022/10/26 05:21:25;;;;;;;6.27;3.10;;;15.10;99.10;;;;;;5027873;28;20456;-66
2022/10/26 05:23:54;;;;;;;6.03;2.97;;;15.10;99.10;;;;;;5027103;28;20459;-66
2022/10/26 05:26:21;;;;;;;3.60;3.03;;;15.10;99.10;;;;;;5026859;28;20451;-68
2022/10/26 05:28:47;;;;;;;4.17;3.50;;;15.10;99.10;;;;;;5027262;28;20469;-66
2022/10/26 05:31:14;;;;;;;7.87;3.23;;;15.20;99.20;;;;;;5026572;28;20442;-66
2022/10/26 05:33:41;;;;;;;7.87;4.00;;;15.10;99.20;;;;;;5028175;28;20486;-66
2022/10/26 05:36:08;;;;;;;10.30;3.67;;;15.10;99.20;;;;;;5029647;28;20486;-66
2022/10/26 05:38:36;;;;;;;7.13;3.50;;;15.10;99.30;;;;;;5031403;28;20461;-66
2022/10/26 05:41:03;;;;;;;4.33;3.20;;;15.10;99.30;;;;;;5031715;28;20451;-66
2022/10/26 05:43:30;;;;;;;5.43;3.23;;;15.10;99.30;;;;;;5031487;28;20466;-67
2022/10/26 05:45:56;;;;;;;13.63;3.57;;;15.10;99.30;;;;;;5030300;28;20460;-67
2022/10/26 05:48:23;;;;;;;7.50;3.63;;;15.10;99.40;;;;;;5030828;28;20462;-67
2022/10/26 05:50:50;;;;;;;9.77;3.60;;;15.10;99.30;;;;;;5030688;28;20510;-67
2022/10/26 05:53:17;;;;;;;9.50;3.50;;;15.10;99.40;;;;;;5030076;28;20459;-66
2022/10/26 05:55:45;;;;;;;9.13;3.17;;;15.10;99.50;;;;;;5030737;28;20517;-67
2022/10/26 05:58:15;;;;;;;8.27;3.60;;;15.10;99.40;;;;;;5031634;28;20447;-67
2022/10/26 06:00:49;;;;;;;5.73;4.00;;;15.10;99.40;;;;;;5031866;28;20522;-67
2022/10/26 06:03:27;;;;;;;12.20;4.63;;;15.10;99.30;;;;;;5032014;28;20868;-67
2022/10/26 06:05:56;;;;;;;8.50;4.43;;;15.10;99.20;;;;;;5030582;28;20424;-66
2022/10/26 06:08:25;;;;;;;5.53;3.40;;;15.10;99.10;;;;;;5030349;28;20486;-67
2022/10/26 06:10:54;;;;;;;9.00;4.37;;;15.20;99.40;;;;;;5030864;28;20868;-66
2022/10/26 06:13:22;;;;;;;6.67;3.93;;;15.10;99.00;;;;;;5030536;28;20471;-66
2022/10/26 06:16:01;;;;;;;5.13;3.10;;;15.10;99.20;;;;;;5029731;28;20494;-66
2022/10/26 06:18:36;;;;;;;7.63;4.10;;;15.10;99.30;;;;;;5031339;28;20437;-67
2022/10/26 06:21:20;;;;;;;9.47;3.20;;;15.20;99.30;;;;;;5032492;28;20431;-66
2022/10/26 06:23:52;;;;;;;5.00;2.20;;;15.10;99.50;;;;;;5032970;28;20470;-66
2022/10/26 06:26:33;;;;;;;3.53;1.70;;;15.20;99.20;;;;;;5033820;28;20444;-67
2022/10/26 06:29:10;;;;;;;1.73;1.30;;;15.10;98.90;;;;;;5033612;28;20474;-65
2022/10/26 06:31:37;;;;;;;4.30;1.30;;;15.20;98.90;;;;;;5032927;28;20442;-66
2022/10/26 06:34:04;;;;;;;2.40;1.23;;;15.20;98.70;;;;;;5033103;28;20471;-67
2022/10/26 06:36:32;;;;;;;3.03;1.27;;;15.20;98.80;;;;;;5033998;28;20491;-68
2022/10/26 06:39:02;;;;;;;6.60;1.20;;;15.20;98.80;;;;;;5034719;28;20435;-67
2022/10/26 06:41:32;;;;;;;2.03;1.53;;;15.20;98.80;;;;;;5034475;28;20428;-66
2022/10/26 06:43:59;;;;;;;3.70;1.60;;;15.20;98.90;;;;;;5033974;28;20446;-67
2022/10/26 06:46:36;;;;;;;5.27;1.70;;;15.10;99.00;;;;;;5033923;28;20450;-67
2022/10/26 06:49:09;;;;;;;6.13;1.80;;;15.10;99.10;;;;;;5033786;28;20481;-66
2022/10/26 06:51:41;;;;;;;1.83;1.60;;;15.20;99.20;;;;;;5035468;28;20431;-66
2022/10/26 06:54:15;;;;;;;1.73;1.60;;;15.30;99.10;;;;;;5034468;28;20439;-66
2022/10/26 06:56:45;;;;;;;3.03;1.70;;;15.30;99.10;;;;;;5032952;28;20483;-66
2022/10/26 06:59:18;;;;;;;1.73;1.57;;;15.30;98.90;;;;;;5033350;28;20470;-66
2022/10/26 07:01:46;;;;;;;2.77;1.40;;;15.40;98.90;;;;;;5032926;28;20826;-66
2022/10/26 07:04:13;;;;;;;1.77;1.67;;;15.40;98.70;;;;;;5033604;28;20439;-68
2022/10/26 07:06:39;;;;;;;3.13;1.27;;;15.40;98.50;;;;;;5032829;28;20453;-67
2022/10/26 07:09:06;;;;;;;4.40;1.33;;;15.50;98.30;;;;;;5033296;28;20451;-67
2022/10/26 07:11:33;;;;;;;3.10;1.93;;;15.50;98.20;;;;;;5032886;28;20451;-66
2022/10/26 07:14:01;;;;;;;4.23;1.80;;;15.60;98.30;;;;;;5033628;28;20440;-67
2022/10/26 07:16:28;;;;;;;2.60;1.70;;;15.60;98.20;;;;;;5033117;28;20483;-67
2022/10/26 07:18:54;;;;;;;1.57;1.27;;;15.60;98.20;;;;;;5033456;28;20458;-67
2022/10/26 07:21:21;;;;;;;2.00;1.80;;;15.60;98.40;;;;;;5033339;28;20456;-67
2022/10/26 07:23:48;;;;;;;1.80;1.70;;;15.60;98.10;;;;;;5031962;28;20468;-67
2022/10/26 07:26:14;;;;;;;2.53;1.63;;;15.60;98.10;;;;;;5033280;28;20439;-67
2022/10/26 07:28:41;;;;;;;1.83;1.43;;;15.70;98.20;;;;;;5032507;28;20451;-66
2022/10/26 07:31:09;;;;;;;2.63;1.67;;;15.70;98.10;;;;;;5032179;28;20455;-66
2022/10/26 07:33:36;;;;;;;4.50;1.40;;;15.80;98.00;;;;;;5031979;28;20471;-66
2022/10/26 07:36:03;;;;;;;5.03;1.50;;;15.80;98.00;;;;;;5031246;28;20490;-66
2022/10/26 07:38:29;;;;;;;3.50;2.07;;;15.90;98.00;;;;;;5031558;28;20444;-66
2022/10/26 07:40:56;;;;;;;4.00;1.77;;;15.90;97.90;;;;;;5032843;28;20448;-66
2022/10/26 07:43:23;;;;;;;3.20;1.50;;;15.90;97.70;;;;;;5033271;28;20554;-67
2022/10/26 07:45:51;;;;;;;4.00;1.33;;;16.00;97.70;;;;;;5032814;28;20443;-67
2022/10/26 07:48:19;;;;;;;1.90;1.40;;;16.00;97.90;;;;;;5030930;28;20454;-65
2022/10/26 07:50:45;;;;;;;3.90;1.63;;;16.00;98.00;;;;;;5030205;28;20474;-67
2022/10/26 07:53:12;;;;;;;5.90;1.83;;;16.10;98.00;;;;;;5032047;28;20467;-68
2022/10/26 07:55:39;;;;;;;5.40;1.67;;;16.10;97.90;;;;;;5032036;28;20486;-68
2022/10/26 07:58:06;;;;;;;4.73;1.87;;;16.10;97.80;;;;;;5032214;28;20447;-66
2022/10/26 08:00:32;;;;;;;3.47;1.63;;;16.20;97.80;;;;;;5031404;28;20451;-66
2022/10/26 08:03:00;;;;;;;4.90;1.70;;;16.20;97.60;;;;;;5031500;28;20463;-66
2022/10/26 08:05:28;;;;;;;3.37;1.43;;;16.20;97.30;;;;;;5032488;28;20450;-67
2022/10/26 08:07:55;;;;;;;3.17;1.67;;;16.20;97.20;;;;;;5031828;28;20442;-67
2022/10/26 08:10:22;;;;;;;3.20;1.60;;;16.30;97.20;;;;;;5031092;28;20452;-67
2022/10/26 08:12:48;;;;;;;6.10;1.87;;;16.30;97.10;;;;;;5030366;28;20547;-68
2022/10/26 08:15:15;;;;;;;6.13;1.40;;;16.40;97.00;;;;;;5031533;28;20448;-68
2022/10/26 08:17:42;;;;;;;4.33;1.47;;;16.40;96.70;;;;;;5032075;28;20451;-68
2022/10/26 08:20:10;;;;;;;4.37;1.80;;;16.50;96.70;;;;;;5030929;28;20452;-67
2022/10/26 08:22:38;;;;;;;3.60;1.43;;;16.70;96.50;;;;;;5030826;28;20464;-68
2022/10/26 08:25:05;;;;;;;4.43;1.70;;;16.90;96.00;;;;;;5030950;28;20477;-68
2022/10/26 08:27:32;;;;;;;4.30;2.43;;;16.90;95.60;;;;;;5029737;28;20428;-67
2022/10/26 08:29:59;;;;;;;3.60;1.70;;;17.00;95.70;;;;;;5030167;28;20479;-68
2022/10/26 08:32:25;;;;;;;3.80;1.37;;;17.00;95.50;;;;;;5030553;28;20478;-67
2022/10/26 08:34:52;;;;;;;5.37;2.23;;;17.00;95.60;;;;;;5030798;28;20427;-67
2022/10/26 08:37:19;;;;;;;9.80;2.27;;;16.90;95.60;;;;;;5031695;28;20515;-67
2022/10/26 08:39:47;;;;;;;3.63;1.60;;;16.90;95.70;;;;;;5031486;28;20567;-68
2022/10/26 08:42:18;;;;;;;2.83;1.63;;;16.90;95.70;;;;;;5031306;28;20567;-67
2022/10/26 08:44:47;;;;;;;5.33;1.90;;;16.90;95.80;;;;;;5031032;28;20447;-68
2022/10/26 08:47:19;;;;;;;2.13;1.60;;;16.90;95.90;;;;;;5031465;28;20455;-68
2022/10/26 08:49:52;;;;;;;1.90;1.40;;;16.90;96.10;;;;;;5030767;28;20424;-68
2022/10/26 08:52:25;;;;;;;5.50;2.17;;;16.90;95.90;;;;;;5031118;28;20482;-67
2022/10/26 08:54:55;;;;;;;5.53;1.70;;;17.00;96.10;;;;;;5031140;28;20436;-66
2022/10/26 08:57:26;;;;;;;3.80;1.90;;;17.00;95.90;;;;;;5029891;28;20476;-68
2022/10/26 08:59:59;;;;;;;3.77;2.00;;;17.00;95.80;;;;;;5013734;28;20428;-66
2022/10/26 09:02:25;;;;;;;2.73;1.70;;;17.10;95.80;;;;;;5030221;28;20482;-66
2022/10/26 09:04:53;;;;;;;5.40;1.90;;;17.10;95.90;;;;;;5030196;28;20430;-66
2022/10/26 09:07:42;;;;;;;5.37;1.73;;;17.20;95.90;;;;;;5030267;28;20459;-68
2022/10/26 09:10:38;;;;;;;6.03;2.40;;;17.20;95.80;;;;;;5030251;28;20432;-67
2022/10/26 09:13:14;;;;;;;7.53;2.00;;;17.40;95.60;;;;;;5026850;28;20510;-66
2022/10/26 09:15:54;;;;;;;3.60;2.40;;;17.50;95.30;;;;;;5028570;28;20440;-66
2022/10/26 09:18:33;;;;;;;6.70;2.00;;;17.50;95.10;;;;;;5028992;28;20428;-66
2022/10/26 09:21:12;;;;;;;3.17;2.00;;;17.60;94.90;;;;;;5028927;28;20436;-66
2022/10/26 09:23:52;;;;;;;6.63;2.40;;;17.70;94.80;;;;;;5029001;28;20479;-67
2022/10/26 09:26:31;;;;;;;4.37;2.67;;;17.70;94.70;;;;;;5029704;28;20404;-67
2022/10/26 09:29:01;;;;;;;8.60;2.87;;;17.90;94.80;;;;;;5033499;28;20419;-66
2022/10/26 09:31:30;;;;;;;5.63;2.20;;;18.00;94.60;;;;;;5034956;28;20448;-67
2022/10/26 09:33:58;;;;;;;6.83;1.73;;;18.10;94.30;;;;;;5028563;28;20460;-66
2022/10/26 09:36:24;;;;;;;5.40;2.30;;;18.20;94.10;;;;;;5028511;28;20490;-67
2022/10/26 09:38:57;;;;;;;2.33;1.67;;;18.30;94.00;;;;;;5029642;28;20458;-67
2022/10/26 09:41:29;;;;;;;5.43;2.00;;;18.40;93.70;;;;;;5029397;28;20431;-67
2022/10/26 09:44:01;;;;;;;6.50;2.30;;;18.50;93.60;;;;;;5029561;28;20431;-67
2022/10/26 09:46:31;;;;;;;3.83;2.30;;;18.70;93.30;;;;;;5014540;28;20436;-68
2022/10/26 09:49:01;;;;;;;9.53;2.40;;;18.70;93.00;;;;;;5015054;28;20436;-69
2022/10/26 09:51:28;;;;;;;5.93;2.57;;;18.90;93.00;;;;;;5013696;28;20463;-69
2022/10/26 09:53:57;;;;;;;3.90;2.00;;;19.00;92.90;;;;;;5013726;28;20452;-69
2022/10/26 09:56:27;;;;;;;2.80;1.97;;;19.10;92.80;;;;;;5014160;28;20476;-69
2022/10/26 09:59:00;;;;;;;4.97;2.10;;;19.20;92.30;;;;;;5013820;28;20444;-69
2022/10/26 10:01:32;;;;;;;7.13;2.57;;;19.40;92.40;;;;;;5013915;28;20862;-69
2022/10/26 10:04:20;;;;;;;6.00;2.20;;;19.50;92.30;;;;;;5014480;28;20479;-69
2022/10/26 10:06:48;;;;;;;10.10;2.50;;;19.70;91.70;;;;;;5014127;28;20431;-69
2022/10/26 10:09:17;;;;;;;3.30;1.93;;;19.90;91.70;;;;;;5014087;28;20436;-68
2022/10/26 10:11:53;;;;;;;7.73;2.43;;;20.10;91.70;;;;;;5013929;28;20463;-70
2022/10/26 10:14:21;;;;;;;5.90;1.93;;;20.20;91.60;;;;;;5014312;28;20475;-70
2022/10/26 10:16:54;;;;;;;3.63;2.00;;;20.40;90.70;;;;;;5013961;28;20492;-70
2022/10/26 10:19:24;;;;;;;6.87;3.00;;;20.70;90.60;;;;;;5013977;28;20966;-69
2022/10/26 10:21:53;;;;;;;7.33;2.20;;;20.90;89.40;;;;;;5014234;28;20995;-69
2022/10/26 10:24:24;;;;;;;5.37;1.87;;;21.20;86.70;;;;;;5013965;28;20451;-69
2022/10/26 10:27:01;;;;;;;5.00;2.30;;;21.40;83.60;;;;;;5014378;28;20451;-69
2022/10/26 10:29:28;;;;;;;4.97;1.97;;;21.70;84.70;;;;;;5013929;28;20431;-69
2022/10/26 10:31:56;;;;;;;4.00;1.63;;;22.00;83.10;;;;;;5014735;28;20468;-69
2022/10/26 10:34:22;;;;;;;6.00;1.80;;;22.10;80.90;;;;;;5013790;28;20479;-69
2022/10/26 10:36:50;;;;;;;6.50;2.07;;;22.00;81.80;;;;;;5013714;28;20478;-69
2022/10/26 10:39:37;;;;;;;3.83;1.90;;;22.10;81.90;;;;;;5013975;28;20471;-69
2022/10/26 10:42:15;;;;;;;2.80;1.50;;;22.00;79.80;;;;;;5014390;28;20475;-68
2022/10/26 10:44:44;;;;;;;4.63;1.67;;;22.00;81.70;;;;;;5014750;28;20436;-69
2022/10/26 10:47:21;;;;;;;3.53;1.70;;;22.00;81.60;;;;;;5014797;28;20443;-69
2022/10/26 10:49:53;;;;;;;2.40;1.67;;;22.10;81.80;;;;;;5015173;28;20499;-68
2022/10/26 10:52:27;;;;;;;9.50;2.07;;;22.10;81.90;;;;;;5015819;28;20839;-69
2022/10/26 10:55:09;;;;;;;3.10;1.67;;;22.30;82.20;;;;;;5014886;28;20432;-68
2022/10/26 10:57:52;;;;;;;4.10;1.70;;;22.60;79.20;;;;;;5015707;28;20475;-69
2022/10/26 11:00:20;;;;;;;5.43;1.47;;;23.10;79.20;;;;;;5016100;28;20436;-67
2022/10/26 11:03:08;;;;;;;2.77;1.13;;;23.70;75.20;;;;;;5015831;28;20476;-67
2022/10/26 11:06:02;;;;;;;6.00;1.03;;;24.20;71.70;;;;;;5019067;28;20420;-67
2022/10/26 11:08:35;;;;;;;2.47;1.27;;;24.80;68.00;;;;;;5020056;28;20447;-67
2022/10/26 11:11:06;;;;;;;4.63;1.13;;;25.10;65.70;;;;;;5019518;28;20442;-67
2022/10/26 11:13:39;;;;;;;2.00;1.17;;;25.30;63.60;;;;;;5019170;28;20467;-67
2022/10/26 11:16:12;;;;;;;2.30;1.67;;;25.50;62.80;;;;;;5020275;28;20438;-66
2022/10/26 11:18:42;;;;;;;4.10;1.70;;;25.90;61.50;;;;;;5019836;28;20459;-66
2022/10/26 11:21:18;;;;;;;8.50;1.13;;;25.90;59.80;;;;;;5019565;28;20432;-67
2022/10/26 11:23:49;;;;;;;3.83;1.13;;;26.00;58.90;;;;;;5021280;28;20471;-67
2022/10/26 11:26:23;;;;;;;3.73;1.13;;;26.00;59.20;;;;;;5021633;28;20448;-67
2022/10/26 11:28:56;;;;;;;4.20;1.43;;;26.20;59.00;;;;;;5020714;28;20510;-67
2022/10/26 11:31:28;;;;;;;2.03;1.10;;;26.30;57.40;;;;;;5020032;28;20466;-67
2022/10/26 11:34:18;;;;;;;3.10;1.10;;;26.10;57.70;;;;;;5019796;28;20471;-66
2022/10/26 11:36:51;;;;;;;6.90;1.50;;;25.80;58.30;;;;;;5018593;28;20471;-66
2022/10/26 11:39:25;;;;;;;7.03;2.33;;;26.00;58.40;;;;;;5020546;28;20436;-67
2022/10/26 11:42:01;;;;;;;2.40;0.90;;;26.40;58.10;;;;;;5021205;28;20475;-66
2022/10/26 11:44:35;;;;;;;2.40;1.00;;;26.80;57.00;;;;;;5020644;28;20431;-66
2022/10/26 11:47:08;;;;;;;3.20;1.23;;;27.00;55.70;;;;;;5020993;28;20436;-66
2022/10/26 11:49:42;;;;;;;2.73;1.50;;;27.10;55.10;;;;;;5019922;28;20535;-66
2022/10/26 11:52:16;;;;;;;5.37;1.67;;;26.90;53.70;;;;;;5020063;28;20476;-67
2022/10/26 11:54:47;;;;;;;11.70;2.70;;;26.70;54.70;;;;;;5036130;28;20411;-67
2022/10/26 11:57:16;;;;;;;1.73;1.10;;;26.50;54.80;;;;;;5036507;28;20468;-67
2022/10/26 11:59:48;;;;;;;2.57;1.00;;;26.70;55.70;;;;;;5035702;28;20440;-66
2022/10/26 12:02:18;;;;;;;2.20;1.30;;;26.80;55.10;;;;;;5036048;28;20979;-67
2022/10/26 12:04:49;;;;;;;4.80;1.50;;;26.80;54.90;;;;;;5036319;28;20455;-66
2022/10/26 12:07:24;;;;;;;4.67;1.47;;;26.60;56.20;;;;;;5036101;28;20447;-67
2022/10/26 12:09:52;;;;;;;6.80;1.80;;;26.60;55.60;;;;;;5038392;28;20431;-66
2022/10/26 12:12:26;;;;;;;1.80;1.13;;;26.80;55.70;;;;;;5039853;28;20440;-66
2022/10/26 12:15:03;;;;;;;2.80;1.60;;;27.10;54.50;;;;;;5040426;28;20422;-65
2022/10/26 12:17:35;;;;;;;3.97;1.77;;;27.30;53.40;;;;;;5040752;28;20459;-66
2022/10/26 12:20:16;;;;;;;3.33;1.33;;;27.50;53.00;;;;;;5032475;28;20444;-67
2022/10/26 12:22:43;;;;;;;4.90;1.40;;;27.70;53.10;;;;;;5015531;28;20479;-67
2022/10/26 12:25:20;;;;;;;4.63;1.73;;;27.90;52.30;;;;;;5015317;28;20464;-67
2022/10/26 12:27:53;;;;;;;3.17;1.57;;;28.10;51.90;;;;;;5015289;28;20431;-67
2022/10/26 12:30:28;;;;;;;1.87;1.30;;;28.40;50.70;;;;;;5014950;28;20447;-67
2022/10/26 12:32:57;;;;;;;2.70;1.40;;;28.40;49.70;;;;;;5014690;28;20470;-67
2022/10/26 12:35:39;;;;;;;2.33;1.53;;;28.20;50.20;;;;;;5014969;28;20444;-67
2022/10/26 12:38:48;;;;;;;5.43;1.40;;;28.20;50.90;;;;;;5014807;28;20846;-67
2022/10/26 12:41:24;;;;;;;4.63;1.30;;;28.00;51.50;;;;;;5015052;28;20432;-67
2022/10/26 12:44:01;;;;;;;4.50;1.57;;;27.90;51.70;;;;;;5014767;28;20506;-67
2022/10/26 12:46:39;;;;;;;6.67;1.80;;;27.80;50.90;;;;;;5014718;28;20440;-66
2022/10/26 12:49:53;;;;;;;3.77;1.43;;;27.60;51.50;;;;;;5014448;28;20782;-67
2022/10/26 12:52:22;;;;;;;6.10;1.47;;;27.60;51.40;;;;;;5014210;28;20474;-67
2022/10/26 12:55:17;;;;;;;2.53;1.20;;;27.40;52.00;;;;;;5014952;28;20452;-67
2022/10/26 12:57:52;;;;;;;2.30;1.63;;;27.40;52.40;;;;;;5014541;28;20479;-67
2022/10/26 13:00:24;;;;;;;3.30;1.60;;;27.50;52.80;;;;;;5014644;28;20435;-67
2022/10/26 13:03:09;;;;;;;2.00;1.30;;;27.60;51.30;;;;;;5014158;28;20471;-67
2022/10/26 13:05:57;;;;;;;2.13;1.20;;;27.60;51.60;;;;;;5014465;28;20455;-67